Time;durP1;ratioP1;P1;durP2;ratioP2;P2;SDS_P1;SDS_P2;PMS_P1;PMS_P2;Temp;Humidity;BMP_temperature;BMP_pressure;BME280_temperature;BME280_humidity;BME280_pressure;Samples;Min_cycle;Max_cycle;Signal;HPM_P1;HPM_P2
2022/06/01 00:02:25;;;;;;;8.57;5.82;;;;;;;19.55;51.29;101481.06;5088829;28;20051;-48
2022/06/01 00:04:52;;;;;;;8.18;5.82;;;;;;;19.55;51.82;101487.31;5085935;28;20127;-52
2022/06/01 00:07:19;;;;;;;8.23;5.15;;;;;;;19.54;51.92;101482.94;5081558;28;20420;-49
2022/06/01 00:09:45;;;;;;;8.48;6.03;;;;;;;19.54;51.34;101482.94;5081137;28;20450;-50
2022/06/01 00:12:12;;;;;;;8.27;5.55;;;;;;;19.53;51.98;101470.44;5083576;28;20047;-48
2022/06/01 00:14:38;;;;;;;7.68;5.78;;;;;;;19.53;51.48;101466.91;5082120;28;20048;-48
2022/06/01 00:17:05;;;;;;;7.45;5.25;;;;;;;19.51;51.82;101461.69;5085119;28;20051;-50
2022/06/01 00:19:31;;;;;;;9.20;6.10;;;;;;;19.52;51.55;101467.91;5085539;28;20052;-48
2022/06/01 00:22:14;;;;;;;7.18;5.15;;;;;;;19.51;52.15;101467.06;5083732;28;20040;-49
2022/06/01 00:24:43;;;;;;;8.88;6.10;;;;;;;19.51;51.63;101463.56;5082862;28;20053;-51
2022/06/01 00:27:11;;;;;;;7.47;5.32;;;;;;;19.51;52.07;101458.16;5083964;28;20048;-49
2022/06/01 00:29:38;;;;;;;7.40;5.07;;;;;;;19.49;51.80;101455.63;5081563;28;20068;-47
2022/06/01 00:32:06;;;;;;;7.78;5.28;;;;;;;19.47;51.75;101452.25;5083723;28;20054;-48
2022/06/01 00:34:33;;;;;;;5.25;4.18;;;;;;;19.48;51.67;101454.78;5080509;28;20066;-48
2022/06/01 00:37:00;;;;;;;6.78;4.90;;;;;;;19.48;51.70;101449.38;5079332;28;20048;-47
2022/06/01 00:39:26;;;;;;;9.00;4.95;;;;;;;19.47;51.98;101452.25;5081657;28;21299;-50
2022/06/01 00:41:53;;;;;;;7.13;5.05;;;;;;;19.46;52.03;101442.50;5076659;28;20135;-51
2022/06/01 00:44:20;;;;;;;7.70;5.25;;;;;;;19.45;52.14;101447.00;5080326;28;20129;-48
2022/06/01 00:46:46;;;;;;;7.28;5.05;;;;;;;19.44;51.55;101445.31;5077859;28;20055;-51
2022/06/01 00:49:20;;;;;;;7.90;5.22;;;;;;;19.43;52.16;101440.94;5083476;28;20059;-52
2022/06/01 00:51:47;;;;;;;;;;;;;;;19.43;52.23;101451.69;5081031;28;20437;-52
2022/06/01 00:54:15;;;;;;;7.63;3.97;;;;;;;19.46;51.93;101446.03;5079626;28;20251;-51
2022/06/01 00:56:46;;;;;;;6.55;4.47;;;;;;;19.44;51.96;101444.47;5079909;28;20053;-50
2022/06/01 00:59:16;;;;;;;5.97;4.38;;;;;;;19.44;52.14;101449.84;5079030;28;20051;-49
2022/06/01 01:01:45;;;;;;;7.55;4.40;;;;;;;19.43;52.29;101458.91;5079669;28;20445;-52
2022/06/01 01:04:12;;;;;;;7.95;4.28;;;;;;;19.41;51.65;101445.59;5078345;28;20470;-51
2022/06/01 01:06:41;;;;;;;5.65;4.03;;;;;;;19.40;52.10;101449.28;5075777;28;20051;-52
2022/06/01 01:09:10;;;;;;;5.60;4.22;;;;;;;19.40;51.65;101451.13;5078796;28;20032;-47
2022/06/01 01:11:56;;;;;;;6.25;4.15;;;;;;;19.39;52.09;101454.81;5079732;28;20136;-52
2022/06/01 01:14:26;;;;;;;7.32;4.85;;;;;;;19.39;52.48;101449.44;5079563;28;20052;-50
2022/06/01 01:16:54;;;;;;;5.57;3.63;;;;;;;19.40;51.75;101453.81;5077880;28;20048;-47
2022/06/01 01:19:32;;;;;;;5.03;3.90;;;;;;;19.39;51.81;101458.34;5077850;28;20054;-48
2022/06/01 01:22:37;;;;;;;8.13;3.63;;;;;;;19.37;51.81;101454.94;5074975;28;20055;-47
2022/06/01 01:25:24;;;;;;;5.45;4.03;;;;;;;19.37;51.83;101448.72;5077405;28;20064;-51
2022/06/01 01:27:56;;;;;;;5.45;3.53;;;;;;;19.36;52.17;101455.94;5078151;28;20407;-50
2022/06/01 01:30:33;;;;;;;4.72;3.15;;;;;;;19.36;51.97;101447.03;5077617;28;20135;-46
2022/06/01 01:33:12;;;;;;;5.57;3.83;;;;;;;19.36;51.48;101449.72;5080175;28;20052;-48
2022/06/01 01:35:39;;;;;;;4.30;3.10;;;;;;;19.34;51.79;101436.44;5080949;28;20052;-46
2022/06/01 01:38:18;;;;;;;3.97;2.90;;;;;;;19.33;52.04;101444.66;5084622;28;20685;-48
2022/06/01 01:40:45;;;;;;;5.07;3.40;;;;;;;19.34;51.59;101446.38;5077913;28;20048;-47
2022/06/01 01:43:12;;;;;;;4.13;3.38;;;;;;;19.34;51.86;101454.44;5077783;28;20043;-50
2022/06/01 01:45:38;;;;;;;3.85;3.25;;;;;;;19.33;52.34;101450.03;5080475;28;20057;-50
2022/06/01 01:48:05;;;;;;;5.53;3.22;;;;;;;19.32;52.22;101451.88;5075885;28;20105;-49
2022/06/01 01:50:32;;;;;;;4.78;3.28;;;;;;;19.32;52.12;101453.72;5077964;28;20128;-51
2022/06/01 01:52:58;;;;;;;4.65;2.97;;;;;;;19.32;52.38;101456.41;5078005;28;20043;-49
2022/06/01 01:55:49;;;;;;;4.65;2.95;;;;;;;19.32;52.26;101461.78;5079344;28;20052;-49
2022/06/01 01:58:32;;;;;;;4.78;3.30;;;;;;;19.29;52.42;101454.84;5079733;28;20044;-50
2022/06/01 02:01:31;;;;;;;4.28;3.05;;;;;;;19.29;51.95;101457.53;5082575;28;20359;-51
2022/06/01 02:06:03;;;;;;;4.78;3.15;;;;;;;19.29;52.01;101451.31;5081635;28;20126;-50
2022/06/01 02:06:57;;;;;;;3.95;3.20;;;;;;;19.29;52.28;101448.63;5078061;28;20048;-50
2022/06/01 02:09:24;;;;;;;6.07;3.55;;;;;;;19.27;51.85;101432.66;5075590;28;20051;-49
2022/06/01 02:14:52;;;;;;;5.47;3.00;;;;;;;19.25;51.88;101437.31;5078115;28;20460;-51
2022/06/01 02:17:37;;;;;;;5.65;3.05;;;;;;;19.25;52.27;101437.31;5078279;28;20052;-48
2022/06/01 02:20:12;;;;;;;3.20;2.63;;;;;;;19.23;51.65;101442.84;5075310;28;20047;-52
2022/06/01 02:22:41;;;;;;;7.95;3.42;;;;;;;19.23;52.28;101445.53;5079544;28;20048;-48
2022/06/01 02:25:09;;;;;;;4.97;3.20;;;;;;;19.23;51.80;101444.69;5078720;28;20068;-48
2022/06/01 02:27:39;;;;;;;3.13;2.53;;;;;;;19.23;51.88;101455.44;5076355;28;20048;-50
2022/06/01 02:30:17;;;;;;;3.03;2.45;;;;;;;19.22;51.99;101451.06;5077993;28;20032;-48
2022/06/01 02:32:46;;;;;;;3.40;2.70;;;;;;;19.20;51.94;101437.75;5080448;28;20055;-49
2022/06/01 02:35:16;;;;;;;3.92;2.53;;;;;;;19.20;51.73;101439.59;5077304;28;20054;-48
2022/06/01 02:37:46;;;;;;;3.00;2.30;;;;;;;19.20;51.51;101448.50;5077825;28;20387;-51
2022/06/01 02:40:17;;;;;;;4.32;2.67;;;;;;;19.18;51.93;101437.06;5080126;28;20043;-48
2022/06/01 02:42:50;;;;;;;3.20;2.55;;;;;;;19.19;52.25;101446.81;5077520;28;20047;-51
2022/06/01 02:45:23;;;;;;;3.40;2.55;;;;;;;19.19;52.49;101436.06;5080636;28;20044;-48
2022/06/01 02:47:52;;;;;;;4.28;2.55;;;;;;;19.18;52.12;101436.22;5076085;28;20050;-48
2022/06/01 02:50:23;;;;;;;3.30;1.92;;;;;;;19.18;52.29;101442.44;5077652;28;20698;-50
2022/06/01 02:52:50;;;;;;;5.20;2.53;;;;;;;19.17;51.65;101437.19;5078187;28;20324;-48
2022/06/01 02:55:21;;;;;;;3.15;2.03;;;;;;;19.16;51.95;101433.66;5078849;28;20330;-51
2022/06/01 02:57:49;;;;;;;3.50;2.30;;;;;;;19.16;51.77;101436.34;5080942;28;20047;-52
2022/06/01 03:00:23;;;;;;;3.03;2.15;;;;;;;19.14;52.09;101433.00;5076842;28;20044;-50
2022/06/01 03:02:52;;;;;;;2.78;2.30;;;;;;;19.13;52.43;101436.66;5077404;28;20044;-50
2022/06/01 03:05:21;;;;;;;3.95;2.10;;;;;;;19.13;51.78;101433.97;5080365;28;20044;-49
2022/06/01 03:07:48;;;;;;;4.13;2.05;;;;;;;19.12;52.34;101421.53;5075131;28;20071;-49
2022/06/01 03:10:15;;;;;;;5.70;2.30;;;;;;;19.12;52.40;101420.69;5075865;28;20048;-50
2022/06/01 03:12:42;;;;;;;4.97;2.38;;;;;;;19.12;51.58;101426.91;5076426;28;20079;-47
2022/06/01 03:15:11;;;;;;;3.40;1.88;;;;;;;19.12;52.46;101423.38;5076677;28;20044;-47
2022/06/01 03:17:38;;;;;;;4.47;1.80;;;;;;;19.11;52.38;101419.84;5079275;28;20060;-51
2022/06/01 03:20:08;;;;;;;5.60;2.25;;;;;;;19.09;52.17;101408.38;5078342;28;20725;-51
2022/06/01 03:22:36;;;;;;;3.28;2.13;;;;;;;19.08;52.12;101409.38;5079701;28;20062;-51
2022/06/01 03:25:09;;;;;;;3.70;2.00;;;;;;;19.08;52.00;101408.53;5078372;28;20049;-51
2022/06/01 03:27:36;;;;;;;;;;;;;;;19.05;52.06;101401.59;5076850;28;20048;-51
2022/06/01 03:30:03;;;;;;;3.03;2.03;;;;;;;19.09;52.43;101402.16;5073287;28;20338;-51
2022/06/01 03:32:30;;;;;;;3.17;2.15;;;;;;;19.07;52.17;101415.75;5079768;28;20044;-49
2022/06/01 03:34:56;;;;;;;3.88;2.13;;;;;;;19.07;51.64;101421.13;5077265;28;20056;-49
2022/06/01 03:37:23;;;;;;;3.92;2.10;;;;;;;19.06;51.60;101426.66;5077824;28;20039;-51
2022/06/01 03:39:49;;;;;;;2.88;2.00;;;;;;;19.04;52.18;101413.34;5078046;28;20051;-51
2022/06/01 03:42:16;;;;;;;2.92;1.88;;;;;;;19.04;52.38;101417.88;5075512;28;20052;-49
2022/06/01 03:47:27;;;;;;;2.85;1.90;;;;;;;19.03;52.30;101424.25;5076383;28;20112;-51
2022/06/01 03:49:54;;;;;;;2.40;1.58;;;;;;;19.02;52.20;101420.72;5076780;28;20046;-50
2022/06/01 03:52:20;;;;;;;3.97;2.05;;;;;;;19.01;52.05;101427.06;5072777;28;20040;-49
2022/06/01 03:54:47;;;;;;;2.92;2.25;;;;;;;19.00;52.61;101422.69;5076580;28;20036;-51
2022/06/01 03:57:13;;;;;;;2.67;1.98;;;;;;;19.02;52.51;101430.63;5075380;28;20060;-51
2022/06/01 03:59:40;;;;;;;3.30;1.88;;;;;;;19.01;52.29;101429.75;5076247;28;20046;-50
2022/06/01 04:02:06;;;;;;;4.03;2.17;;;;;;;19.01;52.35;101431.59;5077556;28;20404;-51
2022/06/01 04:04:34;;;;;;;9.85;2.42;;;;;;;19.01;52.31;101435.13;5076432;28;20040;-49
2022/06/01 04:07:00;;;;;;;5.18;2.30;;;;;;;19.01;52.35;101432.44;5076658;28;20052;-50
2022/06/01 04:09:29;;;;;;;8.15;2.88;;;;;;;18.99;52.45;101437.13;5073068;28;20044;-50
2022/06/01 04:11:56;;;;;;;10.75;2.70;;;;;;;18.99;52.65;101442.50;5084148;28;20171;-50
2022/06/01 04:14:23;;;;;;;8.20;3.35;;;;;;;18.98;52.18;101438.97;5080094;28;20323;-51
2022/06/01 04:16:50;;;;;;;7.65;3.10;;;;;;;18.99;52.25;101443.34;5080786;28;20044;-49
2022/06/01 04:19:17;;;;;;;6.03;3.10;;;;;;;18.99;52.60;101431.75;5077934;28;20129;-48
2022/06/01 04:21:48;;;;;;;10.90;3.63;;;;;;;18.98;52.80;101436.28;5081379;28;20058;-48
2022/06/01 04:24:17;;;;;;;11.73;3.30;;;;;;;18.98;52.33;101433.59;5080068;28;20431;-48
2022/06/01 04:26:43;;;;;;;11.90;4.13;;;;;;;18.98;52.30;101436.28;5080519;28;20052;-48
2022/06/01 04:29:10;;;;;;;7.03;4.47;;;;;;;19.00;52.27;101438.81;5082326;28;20076;-49
2022/06/01 04:31:37;;;;;;;10.82;4.45;;;;;;;19.00;52.35;101430.75;5084161;28;20035;-51
2022/06/01 04:34:04;;;;;;;10.15;4.85;;;;;;;19.02;52.64;101434.16;5079542;28;20055;-51
2022/06/01 04:36:31;;;;;;;9.00;4.38;;;;;;;19.04;52.28;101434.00;5082868;28;20059;-49
2022/06/01 04:38:58;;;;;;;8.38;4.65;;;;;;;19.05;52.22;101433.00;5079572;28;20045;-51
2022/06/01 04:41:24;;;;;;;8.40;4.10;;;;;;;19.05;52.33;101433.84;5081102;28;20036;-51
2022/06/01 04:43:51;;;;;;;11.30;4.72;;;;;;;19.07;51.85;101436.41;5081750;28;20050;-48
2022/06/01 04:46:18;;;;;;;9.15;5.15;;;;;;;19.07;51.92;101439.94;5082103;28;20043;-50
2022/06/01 04:48:44;;;;;;;9.50;4.78;;;;;;;19.10;51.93;101438.81;5081053;28;20040;-48
2022/06/01 04:51:11;;;;;;;9.68;5.38;;;;;;;19.09;51.37;101432.56;5080146;28;20052;-49
2022/06/01 04:53:42;;;;;;;10.93;4.88;;;;;;;19.11;52.05;101438.66;5087596;28;20139;-48
2022/06/01 04:56:13;;;;;;;10.38;4.88;;;;;;;19.12;51.83;101440.34;5082518;28;20082;-50
2022/06/01 04:58:40;;;;;;;8.27;4.78;;;;;;;19.14;51.32;101446.41;5083829;28;20056;-50
2022/06/01 05:01:06;;;;;;;8.55;4.32;;;;;;;19.17;51.46;101440.72;5081341;28;20139;-53
2022/06/01 05:03:34;;;;;;;7.00;4.40;;;;;;;19.19;51.80;101440.59;5080297;28;20086;-51
2022/06/01 05:06:00;;;;;;;9.48;4.35;;;;;;;19.19;51.71;101438.75;5077954;28;20059;-48
2022/06/01 05:08:27;;;;;;;9.38;4.63;;;;;;;19.21;51.40;101435.91;5080389;28;20048;-51
2022/06/01 05:10:53;;;;;;;14.13;4.60;;;;;;;19.21;51.29;101434.06;5082460;28;20087;-51
2022/06/01 05:13:20;;;;;;;9.93;4.72;;;;;;;19.23;50.92;101436.63;5083773;28;20411;-52
2022/06/01 05:15:50;;;;;;;9.25;4.75;;;;;;;19.23;50.94;101445.53;5086328;28;20139;-51
2022/06/01 05:18:17;;;;;;;6.60;4.20;;;;;;;19.24;50.74;101441.84;5086547;28;20036;-50
2022/06/01 05:20:44;;;;;;;7.57;4.43;;;;;;;19.24;51.12;101451.75;5087025;28;20353;-49
2022/06/01 05:23:11;;;;;;;6.63;4.18;;;;;;;19.24;51.50;101452.59;5083440;28;20044;-51
2022/06/01 05:25:41;;;;;;;9.90;4.32;;;;;;;19.24;50.89;101459.81;5080794;28;20136;-51
2022/06/01 05:28:07;;;;;;;10.70;4.18;;;;;;;19.23;50.81;101461.66;5081653;28;20362;-47
2022/06/01 05:30:34;;;;;;;6.97;3.65;;;;;;;19.21;51.32;101466.31;5082174;28;20315;-50
2022/06/01 05:33:01;;;;;;;7.57;3.97;;;;;;;19.18;50.84;101463.94;5082101;28;20069;-47
2022/06/01 05:35:27;;;;;;;6.00;3.92;;;;;;;19.18;51.35;101461.25;5078653;28;20044;-49
2022/06/01 05:37:54;;;;;;;8.85;4.30;;;;;;;19.16;51.37;101462.38;5080079;28;20036;-48
2022/06/01 05:40:20;;;;;;;4.82;3.72;;;;;;;19.15;50.95;101466.06;5082901;28;20044;-49
2022/06/01 05:42:47;;;;;;;7.38;3.65;;;;;;;19.14;50.88;101464.38;5081022;28;20040;-49
2022/06/01 05:45:14;;;;;;;7.38;3.78;;;;;;;19.14;50.94;101472.44;5077544;28;20043;-51
2022/06/01 05:47:40;;;;;;;7.57;3.90;;;;;;;19.13;51.47;101468.03;5081541;28;20040;-50
2022/06/01 05:50:07;;;;;;;6.03;3.60;;;;;;;19.10;50.83;101465.69;5079549;28;20066;-48
2022/06/01 05:52:38;;;;;;;7.97;3.40;;;;;;;19.09;51.43;101470.16;5080297;28;20062;-48
2022/06/01 05:55:08;;;;;;;7.35;4.15;;;;;;;19.10;51.32;101474.56;5079126;28;20050;-47
2022/06/01 05:57:35;;;;;;;8.35;3.85;;;;;;;19.11;50.90;101476.25;5083486;28;22288;-49
2022/06/01 06:00:05;;;;;;;5.38;3.35;;;;;;;19.10;51.29;101482.63;5079859;28;20040;-50
2022/06/01 06:02:32;;;;;;;6.38;3.50;;;;;;;19.10;51.60;101477.25;5077774;28;20444;-50
2022/06/01 06:04:59;;;;;;;5.65;3.63;;;;;;;19.11;51.24;101480.78;5081792;28;20058;-50
2022/06/01 06:07:25;;;;;;;6.22;3.83;;;;;;;19.11;51.08;101486.16;5077283;28;20125;-48
2022/06/01 06:09:52;;;;;;;7.00;3.67;;;;;;;19.13;51.45;101478.78;5083198;28;20036;-49
2022/06/01 06:12:19;;;;;;;5.20;3.45;;;;;;;19.13;51.01;101487.69;5080685;28;20813;-49
2022/06/01 06:14:45;;;;;;;5.97;3.72;;;;;;;19.14;51.20;101493.94;5081069;28;20130;-49
2022/06/01 06:17:12;;;;;;;6.35;3.50;;;;;;;19.14;51.42;101488.56;5080513;28;20407;-51
2022/06/01 06:19:38;;;;;;;7.25;3.35;;;;;;;19.14;51.08;101488.56;5081844;28;20135;-47
2022/06/01 06:22:09;;;;;;;6.78;3.78;;;;;;;19.15;51.59;101495.63;5079360;28;20093;-49
2022/06/01 06:24:36;;;;;;;5.40;3.50;;;;;;;19.14;51.06;101494.78;5078577;28;20083;-52
2022/06/01 06:27:02;;;;;;;7.85;3.50;;;;;;;19.15;50.87;101488.41;5078069;28;20056;-49
2022/06/01 06:29:29;;;;;;;5.50;3.70;;;;;;;19.17;51.08;101490.94;5078162;28;20043;-49
2022/06/01 06:31:55;;;;;;;6.43;3.58;;;;;;;19.18;51.40;101500.72;5081531;28;20056;-50
2022/06/01 06:34:22;;;;;;;5.47;3.55;;;;;;;19.18;51.06;101498.88;5079965;28;20055;-50
2022/06/01 06:36:49;;;;;;;8.05;3.70;;;;;;;19.19;51.04;101507.78;5085923;28;20041;-50
2022/06/01 06:39:15;;;;;;;5.65;3.08;;;;;;;19.19;50.97;101508.63;5083308;28;20043;-48
2022/06/01 06:41:42;;;;;;;5.70;3.72;;;;;;;19.19;51.31;101505.94;5081172;28;20058;-49
2022/06/01 06:44:09;;;;;;;5.15;3.28;;;;;;;19.20;51.08;101510.31;5080755;28;20042;-50
2022/06/01 06:46:35;;;;;;;5.47;3.45;;;;;;;19.20;51.61;101502.25;5081801;28;20518;-52
2022/06/01 06:49:02;;;;;;;5.82;3.78;;;;;;;19.21;51.10;101509.31;5077472;28;20107;-50
2022/06/01 06:51:34;;;;;;;5.47;2.95;;;;;;;19.22;51.28;101510.19;5079261;28;20055;-50
2022/06/01 06:54:01;;;;;;;5.88;3.50;;;;;;;19.22;50.76;101516.41;5080976;28;20458;-52
2022/06/01 06:56:27;;;;;;;5.43;3.30;;;;;;;19.23;50.75;101515.41;5084993;28;20044;-46
2022/06/01 06:58:54;;;;;;;5.15;2.75;;;;;;;19.23;51.32;101515.41;5080417;28;20044;-51
2022/06/01 07:01:21;;;;;;;5.57;3.20;;;;;;;19.25;51.30;101515.25;5085174;28;20042;-48
2022/06/01 07:03:47;;;;;;;4.95;3.03;;;;;;;19.27;51.03;101520.50;5079945;28;20052;-50
2022/06/01 07:06:21;;;;;;;3.67;2.85;;;;;;;19.27;50.88;101515.97;5078654;28;20324;-51
2022/06/01 07:08:50;;;;;;;5.55;3.20;;;;;;;19.28;51.33;101523.03;5077757;28;20439;-48
2022/06/01 07:11:19;;;;;;;5.30;3.25;;;;;;;19.31;51.28;101529.97;5080068;28;20044;-48
2022/06/01 07:13:47;;;;;;;5.30;3.08;;;;;;;19.30;51.02;101525.59;5081913;28;20172;-51
2022/06/01 07:16:24;;;;;;;4.35;2.67;;;;;;;19.31;51.35;101533.50;5079978;28;20048;-49
2022/06/01 07:18:54;;;;;;;3.42;2.60;;;;;;;19.33;50.74;101531.50;5079442;28;20043;-50
2022/06/01 07:21:22;;;;;;;23.05;3.00;;;;;;;19.34;51.04;101538.59;5076521;28;20048;-50
2022/06/01 07:23:49;;;;;;;5.07;2.65;;;;;;;19.35;51.26;101537.59;5080155;28;20984;-51
2022/06/01 07:26:21;;;;;;;3.83;2.53;;;;;;;19.36;51.04;101539.28;5081055;28;20062;-51
2022/06/01 07:28:48;;;;;;;5.35;2.92;;;;;;;19.38;51.04;101537.31;5077227;28;20539;-49
2022/06/01 07:31:17;;;;;;;4.82;2.35;;;;;;;19.38;50.93;101544.53;5079906;28;20126;-51
2022/06/01 07:33:44;;;;;;;3.58;2.28;;;;;;;19.39;51.02;101535.47;5076871;28;20306;-51
2022/06/01 07:36:14;;;;;;;4.45;2.60;;;;;;;19.39;50.68;101538.16;5075274;28;20052;-51
2022/06/01 07:44:14;;;;;;;4.95;2.50;;;;;;;19.42;51.00;101540.56;5079227;28;20079;-51
2022/06/01 07:46:40;;;;;;;5.43;2.25;;;;;;;19.43;51.03;101537.72;5078980;28;20044;-51
2022/06/01 07:49:13;;;;;;;3.83;2.20;;;;;;;19.43;50.69;101532.34;5084372;28;20048;-50
2022/06/01 07:52:00;;;;;;;4.28;2.50;;;;;;;19.45;51.20;101530.34;5083279;28;20044;-52
2022/06/01 07:54:27;;;;;;;10.57;2.22;;;;;;;19.46;50.58;101537.44;5079923;28;20052;-52
2022/06/01 07:56:53;;;;;;;2.58;1.63;;;;;;;19.48;50.84;101542.66;5082166;28;20040;-51
2022/06/01 07:59:20;;;;;;;6.13;2.10;;;;;;;19.47;51.09;101544.50;5082936;28;20308;-51
2022/06/01 08:01:46;;;;;;;4.03;2.47;;;;;;;19.49;51.09;101544.34;5079901;28;20070;-51
2022/06/01 08:04:16;;;;;;;3.35;2.13;;;;;;;19.49;50.33;101547.88;5079496;28;20087;-49
2022/06/01 08:06:42;;;;;;;3.53;2.00;;;;;;;19.49;50.79;101545.19;5081911;28;20044;-49
2022/06/01 08:09:24;;;;;;;3.53;2.20;;;;;;;19.51;50.22;101547.75;5081573;28;20135;-48
2022/06/01 08:14:36;;;;;;;2.60;1.90;;;;;;;19.52;50.68;101546.75;5082715;28;20131;-49
2022/06/01 08:17:02;;;;;;;3.25;1.90;;;;;;;19.52;50.51;101549.44;5085846;28;20053;-52
2022/06/01 08:19:29;;;;;;;4.88;1.85;;;;;;;19.52;50.99;101535.97;5085176;28;20054;-48
2022/06/01 08:21:56;;;;;;;3.13;1.95;;;;;;;19.54;50.47;101538.50;5083480;28;20090;-50
2022/06/01 08:24:22;;;;;;;3.80;2.25;;;;;;;19.54;50.57;101544.78;5080081;28;20130;-47
2022/06/01 08:26:50;;;;;;;2.97;1.77;;;;;;;19.54;50.67;101550.16;5083736;28;20056;-49
2022/06/01 08:29:17;;;;;;;2.33;1.73;;;;;;;19.55;50.48;101553.69;5082379;28;20052;-51
2022/06/01 08:31:43;;;;;;;3.63;1.77;;;;;;;19.55;50.36;101549.13;5084534;28;20419;-50
2022/06/01 08:34:15;;;;;;;2.88;1.60;;;;;;;19.55;50.73;101551.84;5086217;28;20090;-53
2022/06/01 08:36:42;;;;;;;2.47;1.60;;;;;;;19.54;50.18;101544.78;5084651;28;20048;-52
2022/06/01 08:39:08;;;;;;;3.20;1.75;;;;;;;19.56;50.13;101547.28;5087904;28;20303;-50
2022/06/01 08:41:37;;;;;;;3.00;1.95;;;;;;;19.56;50.84;101542.75;5087178;28;20042;-51
2022/06/01 08:44:14;;;;;;;2.22;1.77;;;;;;;19.57;50.89;101539.06;5085474;28;20455;-50
2022/06/01 08:46:42;;;;;;;2.60;1.65;;;;;;;19.60;50.83;101546.84;5080865;28;20534;-50
2022/06/01 08:49:14;;;;;;;2.78;1.70;;;;;;;19.61;50.51;101545.00;5084352;28;20127;-51
2022/06/01 08:51:40;;;;;;;2.72;1.80;;;;;;;19.63;49.96;101551.13;5079243;28;20045;-50
2022/06/01 08:54:07;;;;;;;4.90;1.60;;;;;;;19.62;50.35;101558.34;5080479;28;20056;-51
2022/06/01 08:56:46;;;;;;;2.60;1.95;;;;;;;19.64;49.95;101556.34;5085476;28;20498;-51
2022/06/01 08:59:33;;;;;;;4.28;1.70;;;;;;;19.64;49.93;101559.03;5082431;28;20049;-49
2022/06/01 09:02:05;;;;;;;2.20;1.50;;;;;;;19.66;50.01;101564.28;5083672;28;20036;-50
2022/06/01 09:04:40;;;;;;;3.30;1.63;;;;;;;19.67;50.54;101563.28;5081143;28;20051;-49
2022/06/01 09:07:23;;;;;;;2.17;1.50;;;;;;;19.67;50.80;101564.13;5083421;28;20049;-47
2022/06/01 09:10:25;;;;;;;3.80;1.70;;;;;;;19.70;50.49;101554.94;5080714;28;20046;-50
2022/06/01 09:13:00;;;;;;;2.67;1.17;;;;;;;19.72;50.22;101561.84;5080958;28;20040;-51
2022/06/01 09:15:31;;;;;;;2.03;1.67;;;;;;;19.75;50.74;101557.19;5080753;28;20139;-49
2022/06/01 09:18:00;;;;;;;2.38;1.65;;;;;;;19.76;50.77;101554.34;5078342;28;20044;-51
2022/06/01 09:23:15;;;;;;;2.63;1.35;;;;;;;19.81;50.72;101570.88;5078202;28;20040;-52
2022/06/01 09:25:51;;;;;;;2.10;1.52;;;;;;;19.84;50.70;101575.13;5080472;28;20048;-51
2022/06/01 09:28:24;;;;;;;1.55;1.30;;;;;;;19.87;50.68;101566.75;5078722;28;20140;-50
2022/06/01 09:31:18;;;;;;;3.13;1.35;;;;;;;19.88;50.77;101574.66;5079176;28;20434;-52
2022/06/01 09:33:45;;;;;;;2.15;1.42;;;;;;;19.93;50.26;101577.75;5073193;28;20393;-47
2022/06/01 09:36:11;;;;;;;1.63;1.10;;;;;;;19.96;50.49;101580.16;5080279;28;20052;-49
2022/06/01 09:38:50;;;;;;;1.95;1.63;;;;;;;19.97;50.25;101568.38;5082249;28;20551;-52
2022/06/01 09:41:19;;;;;;;2.33;1.63;;;;;;;20.00;50.18;101569.94;5081850;28;20040;-50
2022/06/01 09:44:10;;;;;;;2.55;1.40;;;;;;;20.02;50.61;101570.66;5078365;28;20280;-51
2022/06/01 09:46:40;;;;;;;1.65;1.10;;;;;;;20.06;50.05;101565.78;5081968;28;20055;-51
2022/06/01 09:49:31;;;;;;;1.92;1.27;;;;;;;20.07;50.02;101562.13;5081429;28;20040;-50
2022/06/01 09:52:12;;;;;;;1.60;1.02;;;;;;;20.10;50.30;101554.63;5084653;28;20130;-49
2022/06/01 09:54:45;;;;;;;1.85;1.33;;;;;;;20.12;50.30;101574.13;5080980;28;20127;-49
2022/06/01 09:57:25;;;;;;;2.20;1.30;;;;;;;20.14;49.70;101580.22;5082392;28;20452;-50
2022/06/01 10:08:28;;;;;;;1.15;0.90;;;;;;;20.21;49.58;101578.59;5078493;28;20429;-50
2022/06/01 10:11:00;;;;;;;1.38;1.20;;;;;;;20.23;49.86;101583.03;5081737;28;20147;-51
2022/06/01 10:13:38;;;;;;;1.33;0.93;;;;;;;20.26;50.15;101571.94;5080773;28;20045;-51
2022/06/01 10:16:35;;;;;;;1.75;1.30;;;;;;;20.27;50.04;101579.03;5085062;28;20076;-50
2022/06/01 10:19:05;;;;;;;2.42;1.17;;;;;;;20.28;49.61;101575.34;5084418;28;20070;-50
2022/06/01 10:21:52;;;;;;;2.83;1.17;;;;;;;20.30;49.30;101589.47;5083789;28;20419;-47
2022/06/01 10:24:49;;;;;;;2.15;0.98;;;;;;;20.30;49.75;101590.34;5080058;28;20052;-47
2022/06/01 10:27:20;;;;;;;1.15;0.80;;;;;;;20.31;49.86;101588.50;5080226;28;20070;-49
2022/06/01 10:30:17;;;;;;;1.15;0.80;;;;;;;20.31;49.44;101589.34;5077077;28;20448;-52
2022/06/01 10:32:54;;;;;;;1.15;0.80;;;;;;;20.34;49.23;101585.47;5068720;28;20499;-51
2022/06/01 10:35:39;;;;;;;2.13;1.20;;;;;;;20.35;49.87;101592.59;5077035;28;20059;-50
2022/06/01 10:38:20;;;;;;;1.63;0.80;;;;;;;20.37;49.33;101609.41;5078157;28;20057;-48
2022/06/01 10:40:54;;;;;;;1.70;1.02;;;;;;;20.37;49.72;101602.19;5080241;28;20044;-49
2022/06/01 10:43:24;;;;;;;;;;;;;;;20.39;49.02;101602.06;5082471;28;20044;-48
2022/06/01 10:46:11;;;;;;;1.95;0.90;;;;;;;20.40;48.93;101604.59;5077193;28;19920;-50
2022/06/01 10:48:47;;;;;;;1.23;0.80;;;;;;;20.41;49.45;101608.13;5078833;28;20040;-50
2022/06/01 10:51:21;;;;;;;1.73;0.88;;;;;;;20.41;49.47;101603.56;5080402;28;20042;-50
2022/06/01 10:53:59;;;;;;;1.30;0.93;;;;;;;20.43;49.37;101603.44;5077899;28;20048;-51
2022/06/01 10:56:26;;;;;;;1.45;0.80;;;;;;;20.44;49.07;101613.22;5082517;28;20080;-53
2022/06/01 10:59:01;;;;;;;1.67;0.88;;;;;;;20.45;48.92;101602.28;5076475;28;20119;-52
2022/06/01 11:01:49;;;;;;;1.55;0.98;;;;;;;20.46;48.94;101605.81;5076491;28;20185;-51
2022/06/01 11:04:44;;;;;;;1.25;0.88;;;;;;;20.48;49.44;101598.44;5075942;28;20048;-51
2022/06/01 11:07:13;;;;;;;1.42;0.90;;;;;;;20.50;49.40;101609.09;5077485;28;20128;-53
2022/06/01 11:09:58;;;;;;;0.95;0.77;;;;;;;20.51;49.25;101608.94;5077702;28;20084;-50
2022/06/01 11:12:36;;;;;;;1.55;0.90;;;;;;;20.53;48.98;101604.25;5078813;28;20040;-51
2022/06/01 11:15:38;;;;;;;0.93;0.80;;;;;;;20.53;49.21;101615.03;5076969;28;20081;-51
2022/06/01 11:18:38;;;;;;;0.93;0.73;;;;;;;20.55;48.75;101621.13;5077001;28;20054;-53
2022/06/01 11:21:28;;;;;;;1.20;0.63;;;;;;;20.55;48.57;101623.81;5058108;28;20040;-51
2022/06/01 11:24:18;;;;;;;1.20;0.88;;;;;;;20.55;48.83;101615.72;5076799;28;20190;-49
2022/06/01 11:27:25;;;;;;;1.23;0.90;;;;;;;20.58;48.66;101631.59;5077170;28;20132;-52
2022/06/01 11:29:57;;;;;;;1.35;0.60;;;;;;;20.57;48.42;101634.41;5081042;28;20035;-50
2022/06/01 11:32:29;;;;;;;1.40;0.85;;;;;;;20.58;48.75;101630.72;5078698;28;20063;-52
2022/06/01 11:35:04;;;;;;;0.70;0.70;;;;;;;20.58;48.91;101638.81;5081385;28;20044;-52
2022/06/01 11:37:39;;;;;;;0.68;0.60;;;;;;;20.59;48.53;101637.81;5080486;28;20040;-53
2022/06/01 11:40:09;;;;;;;0.90;0.60;;;;;;;20.59;48.32;101627.91;5075808;28;20052;-50
2022/06/01 11:42:57;;;;;;;1.10;0.57;;;;;;;20.59;48.26;101644.06;5077446;28;20141;-52
2022/06/01 11:45:39;;;;;;;0.70;0.50;;;;;;;20.61;48.68;101643.91;5077583;28;20145;-52
2022/06/01 11:48:12;;;;;;;1.17;0.65;;;;;;;20.61;48.45;101642.03;5078850;28;20047;-50
2022/06/01 11:50:52;;;;;;;1.00;0.80;;;;;;;20.62;48.29;101643.75;5079052;28;20048;-52
2022/06/01 11:53:31;;;;;;;3.28;0.80;;;;;;;20.64;48.90;101636.38;5081763;28;20273;-52
2022/06/01 11:56:28;;;;;;;2.25;0.70;;;;;;;20.66;48.40;101641.59;5087534;28;20039;-52
2022/06/01 11:59:03;;;;;;;0.65;0.65;;;;;;;20.67;48.65;101636.06;5081702;28;20040;-48
2022/06/01 12:01:41;;;;;;;2.88;0.93;;;;;;;20.69;48.86;101643.97;5079644;28;20048;-52
2022/06/01 12:04:38;;;;;;;0.50;0.50;;;;;;;20.70;48.04;101645.66;5077712;28;20044;-52
2022/06/01 12:07:11;;;;;;;1.70;0.70;;;;;;;20.73;48.67;101655.31;5076989;28;20115;-53
2022/06/01 12:09:43;;;;;;;3.75;0.60;;;;;;;20.72;48.68;101654.47;5079532;28;20163;-51
2022/06/01 12:12:44;;;;;;;1.00;0.88;;;;;;;20.72;48.26;101659.00;5081220;28;20044;-53
2022/06/01 12:15:19;;;;;;;1.30;0.63;;;;;;;20.74;48.38;101660.53;5082443;28;20067;-52